CMB834 Details

Departure: Joint Base McGuire Dix Lakehurst (KWRI)
Arrival: Biggs Army Airfield (Fort Bliss) (KBIF)
Route: MRB J6 LIT J66 EWM
Notes: USTRANSCOM CONTRACT FLIGHT


Current Weather Information
KWRI 212156Z AUTO 31016G21KT 10SM CLR 22/04 A2996 RMK AO2 SLP145 T02160037
KBIF 212158Z AUTO 22017G31KT 10SM CLR 25/M10 A2970 RMK AO2 PK WND 20033/16 SLP004 T02501101 $